Kennett, Missouri
Current Conditions -  °F | °C
As of 10:53 PM on Friday 28 Nov 2014 (Local Time) from KHKA Reporting Station
Clear Clear  
Wind Chill: 40°   Ceiling: Unl
Heat Index: 45°   Visibility: 10mi
Dew Point: 31°   Wind: 10mph
Humidity: 58%   Direction: 190°S
Pressure: 30.05"   Gusts: NA
Location:  36.24°N, 90.05°W
Report Text: KHKA 290453Z AUTO 19009KT 10SM CLR 07/M01 A3005 RMK AO2 SLP176 T00721006
Loading
Personal Weather Stations






























Interactive Weather Map New forecast layout! Learn more

10-Day Weather Forecast

Advertisements
Track Severe Weather on mobile